Time;durP1;ratioP1;P1;durP2;ratioP2;P2;SDS_P1;SDS_P2;PMS_P1;PMS_P2;Temp;Humidity;BMP_temperature;BMP_pressure;BME280_temperature;BME280_humidity;BME280_pressure;Samples;Min_cycle;Max_cycle;Signal;HPM_P1;HPM_P2
2022/10/23 00:00:20;;;;;;;2.17;0.88;;;15.90;99.90;;;15.16;100.00;100025.34;4119171;28;20023;-78
2022/10/23 00:02:21;;;;;;;5.20;1.60;;;15.80;99.90;;;15.18;100.00;100028.59;4102986;29;20026;-78
2022/10/23 00:04:25;;;;;;;3.38;0.80;;;15.80;99.90;;;15.17;100.00;100028.81;4119582;28;20019;-78
2022/10/23 00:06:28;;;;;;;4.22;1.10;;;15.80;99.90;;;15.15;100.00;100029.00;4107939;28;20022;-78
2022/10/23 00:08:29;;;;;;;2.45;1.27;;;15.80;99.90;;;15.13;100.00;100027.56;4118812;28;20027;-78
2022/10/23 00:10:30;;;;;;;4.65;0.90;;;15.80;99.90;;;15.10;100.00;100018.19;4120001;28;20501;-78
2022/10/23 00:12:31;;;;;;;5.13;0.93;;;15.80;99.90;;;15.05;100.00;100017.97;4117941;28;20027;-78
2022/10/23 00:14:32;;;;;;;2.85;1.10;;;15.70;99.90;;;15.08;100.00;100025.53;4090887;29;20131;-78
2022/10/23 00:16:34;;;;;;;2.00;0.80;;;15.70;99.90;;;15.00;100.00;100017.75;4119987;28;20184;-78
2022/10/23 00:18:36;;;;;;;4.13;1.98;;;15.70;99.90;;;15.02;100.00;100021.03;4119707;28;20038;-78
2022/10/23 00:20:36;;;;;;;5.93;1.13;;;15.70;99.90;;;14.99;100.00;100013.47;4118582;28;20054;-78
2022/10/23 00:22:38;;;;;;;2.58;0.80;;;15.60;99.90;;;14.96;100.00;100011.22;4120105;28;20034;-78
2022/10/23 00:24:39;;;;;;;3.78;1.00;;;15.60;99.90;;;14.95;100.00;100010.41;4118757;28;20506;-78
2022/10/23 00:26:40;;;;;;;2.75;0.70;;;15.60;99.90;;;14.94;100.00;100005.28;4102732;29;20042;-78
2022/10/23 00:28:43;;;;;;;2.90;0.80;;;15.60;99.90;;;14.90;100.00;99988.13;4119515;28;20050;-78
2022/10/23 00:30:43;;;;;;;0.88;0.60;;;15.60;99.90;;;14.90;100.00;100001.41;4121907;28;20050;-78
2022/10/23 00:32:44;;;;;;;1.77;0.60;;;15.50;99.90;;;14.87;100.00;99991.97;4121999;28;20022;-78
2022/10/23 00:34:45;;;;;;;2.85;0.80;;;15.50;99.90;;;14.84;100.00;99986.28;4105718;29;20473;-78
2022/10/23 00:36:46;;;;;;;1.30;0.70;;;15.50;99.90;;;14.82;100.00;99988.28;4122948;28;20019;-78
2022/10/23 00:38:48;;;;;;;3.67;0.85;;;15.50;99.90;;;14.78;100.00;99981.78;4121778;28;20042;-78
2022/10/23 00:40:50;;;;;;;2.05;0.90;;;15.50;99.90;;;14.79;100.00;99994.84;4121778;28;20034;-78
2022/10/23 00:42:51;;;;;;;3.55;0.82;;;15.50;99.90;;;14.76;100.00;99991.75;4121709;28;20371;-78
2022/10/23 00:44:51;;;;;;;3.83;0.70;;;15.40;99.90;;;14.73;100.00;99987.66;4122778;28;20054;-78
2022/10/23 00:46:52;;;;;;;3.08;0.80;;;15.40;99.90;;;14.69;100.00;99981.16;4105565;29;20553;-78
2022/10/23 00:48:54;;;;;;;2.35;0.95;;;15.40;99.90;;;14.72;100.00;99982.56;4105683;29;20027;-78
2022/10/23 00:50:55;;;;;;;6.18;0.85;;;15.40;99.90;;;14.68;100.00;99986.66;4122758;28;20027;-78
2022/10/23 00:53:00;;;;;;;2.05;0.73;;;15.40;99.90;;;14.67;100.00;99992.97;4121552;28;20023;-78
2022/10/23 00:55:02;;;;;;;2.83;0.80;;;15.30;99.90;;;14.61;100.00;99991.94;4122878;28;20486;-78
2022/10/23 00:57:07;;;;;;;2.78;0.80;;;15.30;99.90;;;14.57;100.00;99995.19;4122735;28;20375;-78
2022/10/23 00:59:08;;;;;;;2.55;0.80;;;15.30;99.90;;;14.56;100.00;100006.81;4122618;28;20403;-78
2022/10/23 01:01:21;;;;;;;2.75;1.13;;;15.30;99.90;;;14.59;100.00;100011.72;4121345;28;20037;-78
2022/10/23 01:03:27;;;;;;;3.15;1.00;;;15.20;99.90;;;14.63;100.00;100010.31;4121422;28;20041;-78
2022/10/23 01:05:48;;;;;;;3.70;0.90;;;15.30;99.90;;;14.68;100.00;100003.41;4121392;28;20037;-78
2022/10/23 01:08:01;;;;;;;1.92;0.70;;;15.20;99.90;;;14.64;100.00;100002.16;4105119;29;20135;-78
2022/10/23 01:10:07;;;;;;;4.90;1.15;;;15.30;99.90;;;14.67;100.00;100006.22;4121606;28;20033;-78
2022/10/23 01:12:33;;;;;;;3.50;1.00;;;15.30;99.90;;;14.69;100.00;100010.34;4122538;28;20078;-78
2022/10/23 01:14:46;;;;;;;2.95;1.08;;;15.30;99.90;;;14.63;100.00;100015.63;4122497;28;20050;-78
2022/10/23 01:17:15;;;;;;;3.72;1.10;;;15.30;99.90;;;14.60;100.00;100013.38;4122549;28;20027;-78
2022/10/23 01:20:06;;;;;;;3.15;0.90;;;15.20;99.90;;;14.59;100.00;100009.06;4121223;28;20059;-78
2022/10/23 01:22:37;;;;;;;2.88;1.08;;;15.20;99.90;;;14.60;100.00;99994.78;4122229;28;20067;-78
2022/10/23 01:25:25;;;;;;;3.55;1.00;;;15.20;99.90;;;14.56;100.00;99982.94;4122436;28;20023;-78
2022/10/23 01:27:34;;;;;;;3.85;1.15;;;15.20;99.90;;;14.55;100.00;99976.81;4103664;28;20086;-78
2022/10/23 01:30:00;;;;;;;2.97;1.00;;;15.20;99.90;;;14.58;100.00;99978.22;4121080;28;20525;-77
2022/10/23 01:32:14;;;;;;;3.67;0.98;;;15.20;99.90;;;14.56;100.00;99978.44;4120943;28;20027;-78
2022/10/23 01:34:22;;;;;;;;;;;15.20;99.90;;;14.51;100.00;99982.72;4121356;28;20031;-78
2022/10/23 01:36:29;;;;;;;1.55;0.77;;;15.20;99.90;;;14.50;100.00;99979.25;4121127;28;19910;-78
2022/10/23 01:38:41;;;;;;;2.20;0.70;;;15.20;99.90;;;14.50;100.00;99981.06;4121113;28;20495;-77
2022/10/23 01:41:01;;;;;;;3.45;1.00;;;15.20;99.90;;;14.47;100.00;99981.47;4121096;28;20438;-78
2022/10/23 01:43:16;;;;;;;4.70;1.10;;;15.20;99.90;;;14.49;100.00;99976.78;4121064;28;20034;-78
2022/10/23 01:45:42;;;;;;;2.85;0.95;;;15.10;99.90;;;14.54;100.00;99977.03;4120684;28;20038;-78
2022/10/23 01:47:44;;;;;;;3.95;0.77;;;15.20;99.90;;;14.54;100.00;99961.09;4120825;28;20031;-78
2022/10/23 01:49:47;;;;;;;3.28;1.05;;;15.20;99.90;;;14.60;100.00;99952.34;4120459;28;20041;-78
2022/10/23 01:51:56;;;;;;;4.78;1.05;;;15.20;99.90;;;14.61;100.00;99954.78;4120921;28;20027;-78
2022/10/23 01:53:59;;;;;;;7.85;2.17;;;15.30;99.90;;;14.60;100.00;99936.41;4121888;28;20491;-78
2022/10/23 01:56:05;;;;;;;5.18;1.08;;;15.30;99.90;;;14.63;100.00;99947.44;4120609;28;20038;-77
2022/10/23 01:58:07;;;;;;;3.80;1.15;;;15.30;99.90;;;14.62;100.00;99935.19;4120549;28;20070;-77
2022/10/23 02:00:13;;;;;;;6.70;1.27;;;15.30;99.90;;;14.70;100.00;99926.19;4120579;28;20035;-78
2022/10/23 02:02:17;;;;;;;2.78;1.02;;;15.30;99.90;;;14.66;100.00;99919.66;4120741;28;20516;-78
2022/10/23 02:04:29;;;;;;;6.13;0.90;;;15.30;99.90;;;14.71;100.00;99925.19;4120310;28;20027;-78
2022/10/23 02:06:30;;;;;;;2.50;1.00;;;15.40;99.90;;;14.70;100.00;99921.72;4120640;28;20485;-77
2022/10/23 02:08:31;;;;;;;4.10;1.10;;;15.40;99.90;;;14.69;100.00;99925.41;4120437;28;20520;-77
2022/10/23 02:11:03;;;;;;;1.85;0.73;;;15.40;99.90;;;14.68;100.00;99933.56;4121564;28;20109;-77
2022/10/23 02:13:55;;;;;;;4.95;1.40;;;15.30;99.90;;;14.62;100.00;99929.03;4119078;28;20059;-78
2022/10/23 02:16:29;;;;;;;2.13;0.75;;;15.30;99.90;;;14.57;100.00;99915.56;4120366;28;20027;-77
2022/10/23 02:18:55;;;;;;;7.03;1.40;;;15.20;99.90;;;14.53;100.00;99917.81;4119786;28;20039;-78
2022/10/23 02:21:15;;;;;;;5.78;1.30;;;15.20;99.90;;;14.49;100.00;99905.94;4121248;28;20027;-77
2022/10/23 02:23:54;;;;;;;1.88;1.05;;;15.20;99.90;;;14.46;100.00;99909.00;4120472;28;20038;-77
2022/10/23 02:26:17;;;;;;;2.92;1.00;;;15.10;99.90;;;14.48;100.00;99917.59;4120562;28;20481;-77
2022/10/23 02:28:27;;;;;;;3.92;1.10;;;15.10;99.90;;;14.47;100.00;99909.81;4121250;28;20047;-77
2022/10/23 02:30:31;;;;;;;4.97;1.45;;;15.10;99.90;;;14.43;100.00;99903.28;4120033;28;20051;-77
2022/10/23 02:32:34;;;;;;;6.85;1.30;;;15.10;99.90;;;14.44;100.00;99896.97;4120286;28;20430;-77
2022/10/23 02:34:35;;;;;;;4.78;0.95;;;15.10;99.90;;;14.45;100.00;99903.91;4103622;29;20031;-78
2022/10/23 02:36:37;;;;;;;1.65;0.80;;;15.10;99.90;;;14.30;100.00;99882.84;4121166;28;20023;-78
2022/10/23 02:38:41;;;;;;;4.00;1.52;;;15.10;99.90;;;14.34;100.00;99892.84;4119953;28;20094;-78
2022/10/23 02:40:44;;;;;;;2.67;1.00;;;15.10;99.90;;;14.35;100.00;99902.47;4120164;28;20867;-77
2022/10/23 02:42:56;;;;;;;1.75;1.10;;;15.00;99.90;;;14.36;100.00;99914.72;4119953;28;20042;-78
2022/10/23 02:45:21;;;;;;;2.65;0.93;;;15.00;99.90;;;14.36;100.00;99913.91;4119560;28;20077;-78
2022/10/23 02:47:34;;;;;;;4.70;1.20;;;15.00;99.90;;;14.35;100.00;99909.59;4103714;28;20038;-78
2022/10/23 02:50:22;;;;;;;2.53;1.10;;;15.00;99.90;;;14.37;100.00;99899.59;4120810;28;20113;-78
2022/10/23 02:52:31;;;;;;;3.97;1.15;;;15.10;99.90;;;14.38;100.00;99907.38;4115785;28;20166;-78
2022/10/23 02:54:53;;;;;;;2.72;0.98;;;15.10;99.90;;;14.40;100.00;99909.81;4120925;28;20031;-78
2022/10/23 02:57:08;;;;;;;3.45;1.30;;;15.10;99.90;;;14.43;100.00;99909.41;4121045;28;20065;-78
2022/10/23 02:59:23;;;;;;;5.57;1.23;;;15.10;99.90;;;14.52;100.00;99905.53;4119762;28;20113;-78
2022/10/23 03:01:34;;;;;;;3.28;1.00;;;15.20;99.90;;;14.53;100.00;99888.63;4119583;28;20399;-78
2022/10/23 03:03:46;;;;;;;2.33;0.88;;;15.20;99.90;;;14.66;100.00;99898.44;4119535;28;20030;-78
2022/10/23 03:05:47;;;;;;;5.82;1.05;;;15.30;99.90;;;14.69;100.00;99898.03;4120731;28;20034;-78
2022/10/23 03:07:48;;;;;;;4.75;1.50;;;15.40;99.90;;;14.72;100.00;99916.22;4119362;28;20098;-78
2022/10/23 03:09:49;;;;;;;1.80;0.82;;;15.40;99.90;;;14.74;100.00;99906.19;4103506;28;20450;-78
2022/10/23 03:11:50;;;;;;;2.72;1.20;;;15.40;99.90;;;14.76;100.00;99915.59;4120605;28;20027;-78
2022/10/23 03:13:51;;;;;;;2.85;1.15;;;15.40;99.90;;;14.79;100.00;99903.75;4119274;28;20533;-78
2022/10/23 03:15:52;;;;;;;4.78;1.15;;;15.40;99.90;;;14.79;100.00;99901.91;4120435;28;20035;-78
2022/10/23 03:17:54;;;;;;;2.13;1.05;;;15.50;99.90;;;14.85;100.00;99898.44;4119387;28;20501;-77
2022/10/23 03:19:55;;;;;;;4.50;1.00;;;15.50;99.90;;;14.90;100.00;99895.19;4120334;28;20117;-77
2022/10/23 03:21:56;;;;;;;1.65;0.90;;;15.60;99.90;;;14.92;100.00;99898.44;4120483;28;20062;-78
2022/10/23 03:23:56;;;;;;;5.18;1.02;;;15.60;99.90;;;14.98;100.00;99897.63;4129990;28;20026;-78
2022/10/23 03:25:57;;;;;;;4.63;1.15;;;15.70;99.90;;;14.96;100.00;99873.91;4120731;28;20034;-78
2022/10/23 03:27:59;;;;;;;4.03;1.10;;;15.70;99.90;;;15.02;100.00;99867.00;4119279;28;20051;-78
2022/10/23 03:30:00;;;;;;;3.35;0.80;;;15.70;99.90;;;15.05;100.00;99873.72;4120361;28;20031;-77
2022/10/23 03:32:00;;;;;;;3.35;1.27;;;15.70;99.90;;;15.09;100.00;99869.63;4119079;28;20031;-78
2022/10/23 03:34:01;;;;;;;4.45;1.08;;;15.80;99.90;;;15.06;100.00;99868.19;4120358;28;20023;-77
2022/10/23 03:36:02;;;;;;;3.70;1.50;;;15.70;99.90;;;15.06;100.00;99878.81;4119185;28;20035;-78
2022/10/23 03:38:03;;;;;;;4.65;1.02;;;15.70;99.90;;;15.04;100.00;99869.44;4120176;28;20407;-78
2022/10/23 03:40:05;;;;;;;2.03;0.85;;;15.70;99.90;;;15.09;100.00;99874.94;4118855;28;20174;-78
2022/10/23 03:42:06;;;;;;;3.17;0.73;;;15.80;99.90;;;15.10;100.00;99882.72;4103035;29;20027;-78
2022/10/23 03:44:07;;;;;;;2.78;0.82;;;15.80;99.90;;;15.14;100.00;99881.25;4106064;28;20494;-78
2022/10/23 03:46:11;;;;;;;3.78;0.93;;;15.80;99.90;;;15.20;100.00;99874.31;4119962;28;20026;-78
2022/10/23 03:48:12;;;;;;;3.63;1.00;;;15.80;99.90;;;15.22;100.00;99864.28;4119759;28;20138;-78
2022/10/23 03:50:13;;;;;;;3.83;1.20;;;15.90;99.90;;;15.24;100.00;99863.06;4119138;28;20035;-78
2022/10/23 03:52:14;;;;;;;3.05;1.38;;;15.90;99.90;;;15.21;100.00;99852.03;4120178;28;20426;-78
2022/10/23 03:54:15;;;;;;;3.45;1.15;;;15.90;99.90;;;15.15;100.00;99850.19;4118946;28;20071;-77
2022/10/23 03:56:16;;;;;;;3.75;1.17;;;15.90;99.90;;;15.08;100.00;99850.22;4102840;29;20027;-77
2022/10/23 03:58:17;;;;;;;2.45;1.00;;;15.80;99.90;;;14.97;100.00;99869.44;4102737;29;20038;-78
2022/10/23 04:00:18;;;;;;;3.38;1.13;;;15.70;99.90;;;14.92;100.00;99877.19;4102964;29;20410;-78
2022/10/23 04:02:19;;;;;;;4.95;1.40;;;15.60;99.90;;;14.89;100.00;99880.25;4102580;29;20519;-78
2022/10/23 04:04:20;;;;;;;9.70;1.40;;;15.60;99.90;;;15.00;100.00;99884.13;4102108;29;20042;-78
2022/10/23 04:06:21;;;;;;;8.45;1.20;;;15.70;99.90;;;15.10;100.00;99884.53;4119861;28;20031;-78
2022/10/23 04:08:22;;;;;;;12.07;1.90;;;15.70;99.90;;;15.21;100.00;99886.56;4119983;28;20062;-77
2022/10/23 04:10:22;;;;;;;9.63;1.92;;;15.90;99.90;;;15.30;100.00;99883.50;4118865;28;20027;-78
2022/10/23 04:12:23;;;;;;;8.75;2.30;;;16.00;99.90;;;15.41;100.00;99882.06;4103162;29;20028;-77
2022/10/23 04:14:25;;;;;;;16.10;2.47;;;16.00;99.90;;;15.45;100.00;99889.38;4120018;28;20546;-77
2022/10/23 04:16:26;;;;;;;15.48;3.45;;;16.10;99.90;;;15.50;100.00;99884.28;4120021;28;20039;-78
2022/10/23 04:18:27;;;;;;;6.15;1.77;;;16.10;99.90;;;15.52;100.00;99881.44;4120375;28;20646;-77
2022/10/23 04:20:27;;;;;;;8.55;1.92;;;16.20;99.90;;;15.49;100.00;99873.88;4119610;28;20073;-77
2022/10/23 04:22:28;;;;;;;6.32;2.22;;;16.10;99.90;;;15.39;100.00;99866.28;4119724;28;20030;-77
2022/10/23 04:24:29;;;;;;;4.45;1.48;;;16.10;99.90;;;15.31;100.00;99865.72;4118936;28;20019;-77
2022/10/23 04:26:30;;;;;;;6.45;1.10;;;16.00;99.90;;;15.21;100.00;99868.78;4102892;29;20162;-77
2022/10/23 04:28:31;;;;;;;2.60;1.00;;;15.90;99.90;;;15.08;100.00;99871.47;4118495;28;20478;-77
2022/10/23 04:30:32;;;;;;;5.82;1.40;;;15.80;99.90;;;14.99;100.00;99872.72;4102631;29;20027;-77
2022/10/23 04:32:33;;;;;;;4.43;1.60;;;15.70;99.90;;;14.90;100.00;99877.38;4118737;28;20051;-78
2022/10/23 04:34:34;;;;;;;9.32;2.22;;;15.60;99.90;;;14.88;100.00;99887.41;4102084;29;20406;-78
2022/10/23 04:36:35;;;;;;;12.80;2.70;;;15.60;99.90;;;14.90;100.00;99885.34;4102640;29;20043;-78
2022/10/23 04:38:35;;;;;;;8.20;1.83;;;15.60;99.90;;;14.89;100.00;99872.28;4119800;28;20030;-78
2022/10/23 04:40:37;;;;;;;8.68;1.80;;;15.50;99.90;;;14.83;100.00;99849.22;4120115;28;20030;-78
2022/10/23 04:42:38;;;;;;;12.20;2.67;;;15.50;99.90;;;14.83;100.00;99854.53;4118326;28;20117;-78
2022/10/23 04:44:39;;;;;;;7.55;1.75;;;15.50;99.90;;;14.77;100.00;99853.50;4113284;28;20497;-78
2022/10/23 04:46:39;;;;;;;6.97;1.75;;;15.40;99.90;;;14.69;100.00;99855.56;4118587;28;20023;-78
2022/10/23 04:48:40;;;;;;;19.38;2.28;;;15.40;99.90;;;14.60;100.00;99862.91;4119699;28;20043;-78
2022/10/23 04:50:41;;;;;;;9.90;1.38;;;15.30;99.90;;;14.59;100.00;99876.38;4119860;28;20023;-78
2022/10/23 04:52:42;;;;;;;8.20;1.98;;;15.30;99.90;;;14.50;100.00;99864.31;4119414;28;20019;-79
2022/10/23 04:54:43;;;;;;;15.93;1.83;;;15.20;99.90;;;14.44;100.00;99859.81;4118386;28;20053;-79
2022/10/23 04:56:44;;;;;;;8.40;1.77;;;15.10;99.90;;;14.35;100.00;99859.19;4119699;28;20042;-78
2022/10/23 04:58:45;;;;;;;12.15;2.40;;;15.10;99.90;;;14.31;100.00;99863.22;4118478;28;20541;-78
2022/10/23 05:00:47;;;;;;;8.95;2.15;;;15.00;99.90;;;14.26;100.00;99865.66;4118328;28;20034;-78
2022/10/23 05:02:48;;;;;;;10.70;1.45;;;15.00;99.90;;;14.21;100.00;99863.63;4102271;29;20098;-78
2022/10/23 05:04:49;;;;;;;7.13;1.50;;;14.90;99.90;;;14.13;100.00;99873.59;4119397;28;20035;-78
2022/10/23 05:06:50;;;;;;;6.82;1.70;;;14.80;99.90;;;14.09;100.00;99885.63;4102418;29;20036;-78
2022/10/23 05:08:51;;;;;;;7.45;2.22;;;14.80;99.90;;;14.00;100.00;99879.69;4102492;29;20027;-78
2022/10/23 05:10:52;;;;;;;4.32;1.70;;;14.70;99.90;;;13.98;100.00;99900.25;4102417;29;20031;-78
2022/10/23 05:12:53;;;;;;;5.55;1.30;;;14.70;99.90;;;13.95;100.00;99903.31;4119483;28;20069;-79
2022/10/23 05:14:54;;;;;;;6.35;2.40;;;14.60;99.90;;;13.93;100.00;99896.56;4118630;28;20062;-78
2022/10/23 05:17:03;;;;;;;9.82;2.08;;;14.60;99.90;;;13.91;100.00;99886.19;4122287;28;20057;-78
2022/10/23 05:19:06;;;;;;;8.93;1.65;;;14.60;99.90;;;13.90;100.00;99897.78;4120742;28;20043;-78
2022/10/23 05:21:26;;;;;;;7.75;2.00;;;14.60;99.90;;;13.87;100.00;99892.88;4122407;28;20038;-78
2022/10/23 05:23:28;;;;;;;10.57;2.83;;;14.50;99.90;;;13.82;100.00;99900.63;4121229;28;20035;-78
2022/10/23 05:25:30;;;;;;;5.20;1.92;;;14.50;99.90;;;13.76;100.00;99902.22;4120879;28;20438;-79
2022/10/23 05:27:31;;;;;;;14.77;2.53;;;14.50;99.90;;;13.78;100.00;99899.38;4122019;28;20054;-78
2022/10/23 05:29:32;;;;;;;11.63;2.45;;;14.40;99.90;;;13.76;100.00;99906.72;4122186;28;20039;-78
2022/10/23 05:31:34;;;;;;;7.22;1.83;;;14.40;99.90;;;13.73;100.00;99901.81;4123803;28;20398;-79
2022/10/23 05:33:36;;;;;;;6.85;1.73;;;14.40;99.90;;;13.68;100.00;99898.91;4124208;28;20027;-78
2022/10/23 05:35:38;;;;;;;8.27;1.65;;;14.30;99.90;;;13.69;100.00;99895.25;4120931;28;20027;-78
2022/10/23 05:37:42;;;;;;;10.55;2.17;;;14.30;99.90;;;13.65;100.00;99886.88;4120854;28;20057;-78
2022/10/23 05:39:43;;;;;;;5.38;1.40;;;14.30;99.90;;;13.66;100.00;99895.63;4120851;28;20037;-78
2022/10/23 05:41:44;;;;;;;10.02;2.00;;;14.30;99.90;;;13.60;100.00;99891.13;4120596;28;20066;-78
2022/10/23 05:43:45;;;;;;;6.07;1.58;;;14.30;99.90;;;13.61;100.00;99892.78;4122004;28;20030;-78
2022/10/23 05:45:46;;;;;;;8.48;1.73;;;14.20;99.90;;;13.53;100.00;99887.63;4121731;28;20035;-78
2022/10/23 05:47:48;;;;;;;4.38;1.50;;;14.20;99.90;;;13.52;100.00;99886.81;4120738;28;20446;-78
2022/10/23 05:49:48;;;;;;;8.88;1.60;;;14.20;99.90;;;13.45;100.00;99890.41;4104260;28;20046;-78
2022/10/23 05:51:49;;;;;;;8.32;1.92;;;14.20;99.90;;;13.46;100.00;99884.13;4121900;28;20031;-78
2022/10/23 05:53:51;;;;;;;5.20;1.48;;;14.10;99.90;;;13.40;100.00;99880.44;4121909;28;20022;-78
2022/10/23 05:55:52;;;;;;;4.47;1.15;;;14.10;99.90;;;13.35;100.00;99868.78;4120632;28;20446;-78
2022/10/23 05:57:53;;;;;;;6.68;1.55;;;14.00;99.90;;;13.33;100.00;99871.59;4120510;28;20026;-78
2022/10/23 05:59:54;;;;;;;8.23;1.65;;;14.00;99.90;;;13.26;100.00;99871.56;4104647;29;20039;-78
2022/10/23 06:01:55;;;;;;;14.30;2.08;;;14.00;99.90;;;13.25;100.00;99869.94;4121674;28;20498;-78
2022/10/23 06:03:57;;;;;;;6.07;1.50;;;14.00;99.90;;;13.26;100.00;99874.22;4121441;28;20034;-78
2022/10/23 06:05:58;;;;;;;5.88;1.50;;;13.90;99.90;;;13.21;100.00;99870.50;4104324;29;20031;-78
2022/10/23 06:07:59;;;;;;;6.53;1.40;;;13.90;99.90;;;13.22;100.00;99878.28;4118167;28;20975;-78
2022/10/23 06:10:00;;;;;;;9.63;2.45;;;13.90;99.90;;;13.17;100.00;99874.59;4099773;29;20035;-77
2022/10/23 06:12:02;;;;;;;9.65;1.50;;;13.90;99.90;;;13.17;100.00;99882.53;4103817;29;20031;-78
2022/10/23 06:14:03;;;;;;;6.57;1.60;;;13.80;99.90;;;13.11;100.00;99881.44;4115306;28;20027;-77
2022/10/23 06:16:16;;;;;;;7.55;1.88;;;13.80;99.90;;;13.14;100.00;99885.56;4120008;28;20061;-76
2022/10/23 06:18:17;;;;;;;12.35;2.55;;;13.80;99.90;;;13.11;100.00;99881.44;4103233;29;20031;-77
2022/10/23 06:20:18;;;;;;;13.38;2.72;;;13.80;99.90;;;13.12;100.00;99883.09;4114575;28;20042;-76
2022/10/23 06:22:19;;;;;;;6.22;1.63;;;13.80;99.90;;;13.07;100.00;99874.88;4098616;29;20556;-76
2022/10/23 06:24:19;;;;;;;10.63;1.85;;;13.80;99.90;;;13.05;100.00;99871.59;4087142;29;20070;-76
2022/10/23 06:26:20;;;;;;;11.20;2.08;;;13.80;99.90;;;13.04;100.00;99885.88;4117024;28;20023;-76
2022/10/23 06:28:21;;;;;;;9.13;1.90;;;13.70;99.90;;;13.06;100.00;99877.72;4102537;29;20101;-77
2022/10/23 06:30:23;;;;;;;6.85;1.88;;;13.70;99.90;;;12.96;100.00;99864.81;4103087;29;20020;-77
2022/10/23 06:32:24;;;;;;;4.60;1.50;;;13.70;99.90;;;12.97;100.00;99868.28;4115755;28;20588;-77
2022/10/23 06:34:25;;;;;;;9.43;2.05;;;13.60;99.90;;;12.90;100.00;99868.25;4116656;28;20051;-77
2022/10/23 06:36:26;;;;;;;7.63;1.98;;;13.70;99.90;;;12.93;100.00;99870.47;4117682;28;20401;-77
2022/10/23 06:38:27;;;;;;;6.05;1.30;;;13.60;99.90;;;12.92;100.00;99878.63;4103673;29;20071;-77
2022/10/23 06:40:28;;;;;;;12.45;2.08;;;13.60;99.90;;;12.95;100.00;99881.72;4101609;29;20031;-76
2022/10/23 06:42:29;;;;;;;11.02;1.98;;;13.60;99.90;;;12.97;100.00;99879.69;4118930;28;20402;-76
2022/10/23 06:44:30;;;;;;;5.65;1.50;;;13.70;99.90;;;13.06;100.00;99885.66;4103602;29;20110;-76
2022/10/23 06:46:33;;;;;;;8.65;2.33;;;13.70;99.90;;;13.09;100.00;99890.59;4120954;28;20027;-76
2022/10/23 06:48:34;;;;;;;8.93;2.30;;;13.80;99.90;;;13.16;100.00;99891.47;4119629;28;20388;-76
2022/10/23 06:50:37;;;;;;;8.55;2.15;;;13.90;99.90;;;13.22;100.00;99886.22;4119942;28;20105;-77
2022/10/23 06:52:38;;;;;;;5.18;1.98;;;13.90;99.90;;;13.32;100.00;99898.31;4119756;28;20394;-76
2022/10/23 06:54:39;;;;;;;5.68;1.58;;;14.00;99.90;;;13.35;100.00;99901.38;4120785;28;20106;-76
2022/10/23 06:56:39;;;;;;;5.32;1.60;;;14.00;99.90;;;13.37;100.00;99909.94;4120884;28;20023;-76
2022/10/23 06:58:40;;;;;;;8.68;1.70;;;14.00;99.90;;;13.38;100.00;99905.47;4120812;28;20030;-76
2022/10/23 07:00:43;;;;;;;5.25;1.52;;;14.10;99.90;;;13.40;100.00;99917.50;4119713;28;20034;-77
2022/10/23 07:02:44;;;;;;;8.18;1.88;;;14.10;99.90;;;13.39;100.00;99915.03;4120285;28;20031;-76
2022/10/23 07:04:44;;;;;;;5.47;2.55;;;14.10;99.90;;;13.40;100.00;99911.41;4120430;28;20022;-76
2022/10/23 07:06:45;;;;;;;9.80;2.53;;;14.00;99.90;;;13.43;100.00;99913.66;4120745;28;20023;-76
2022/10/23 07:08:46;;;;;;;7.90;2.60;;;14.10;99.90;;;13.42;100.00;99898.75;4120606;28;20019;-77
2022/10/23 07:10:47;;;;;;;8.05;2.10;;;14.10;99.90;;;13.51;100.00;99897.59;4119344;28;20546;-77
2022/10/23 07:12:48;;;;;;;8.88;1.92;;;14.20;99.90;;;13.58;100.00;99903.75;4120732;28;20019;-76
2022/10/23 07:14:49;;;;;;;9.45;2.20;;;14.20;99.90;;;13.67;100.00;99906.06;4120634;28;20022;-76
2022/10/23 07:16:50;;;;;;;6.30;1.40;;;14.30;99.90;;;13.72;100.00;99889.56;4120627;28;20025;-76
2022/10/23 07:18:58;;;;;;;6.72;1.70;;;14.40;99.90;;;13.81;100.00;99898.97;4119158;28;20035;-76
2022/10/23 07:20:59;;;;;;;8.20;2.10;;;14.40;99.90;;;13.83;100.00;99894.28;4120607;28;20026;-76
2022/10/23 07:22:59;;;;;;;8.15;1.70;;;14.50;99.90;;;13.85;100.00;99884.31;4103218;29;20039;-76
2022/10/23 07:25:00;;;;;;;6.13;1.85;;;14.50;99.90;;;13.87;100.00;99887.59;4118978;28;20040;-77
2022/10/23 07:27:02;;;;;;;7.28;1.80;;;14.50;99.90;;;13.89;100.00;99884.75;4112183;28;20510;-76
2022/10/23 07:29:03;;;;;;;8.43;2.05;;;14.60;99.90;;;13.97;100.00;99880.09;4119258;28;20042;-76
2022/10/23 07:31:04;;;;;;;6.55;1.73;;;14.60;99.90;;;14.02;100.00;99885.59;4119342;28;20086;-76
2022/10/23 07:33:05;;;;;;;5.55;1.80;;;14.70;99.90;;;14.11;100.00;99889.72;4120165;28;20035;-77
2022/10/23 07:35:08;;;;;;;7.55;1.80;;;14.70;99.90;;;14.19;100.00;99880.75;4113575;28;20050;-77
2022/10/23 07:37:09;;;;;;;9.90;2.37;;;14.80;99.90;;;14.32;100.00;99888.75;4118967;28;20034;-77
2022/10/23 07:39:10;;;;;;;9.02;1.98;;;15.00;99.90;;;14.44;100.00;99889.81;4119433;28;20396;-77
2022/10/23 07:41:12;;;;;;;9.88;1.90;;;15.10;99.90;;;14.56;100.00;99885.56;4120259;28;20379;-76
2022/10/23 07:43:13;;;;;;;12.20;2.22;;;15.10;99.90;;;14.63;100.00;99877.59;4120142;28;20029;-76
2022/10/23 07:45:14;;;;;;;6.47;1.75;;;15.20;99.90;;;14.60;100.00;99862.09;4119994;28;20042;-77
2022/10/23 07:47:15;;;;;;;8.30;2.10;;;15.20;99.90;;;14.55;100.00;99857.38;4120266;28;20038;-76
2022/10/23 07:49:15;;;;;;;6.05;1.98;;;15.20;99.90;;;14.49;100.00;99852.88;4119941;28;20031;-76
2022/10/23 07:51:16;;;;;;;4.63;1.33;;;15.20;99.90;;;14.43;100.00;99866.13;4120099;28;20023;-77
2022/10/23 07:53:24;;;;;;;8.50;2.78;;;15.10;99.90;;;14.35;100.00;99861.84;4118812;28;20406;-77
2022/10/23 07:55:25;;;;;;;13.98;2.22;;;15.00;99.90;;;14.27;100.00;99844.25;4119357;28;20031;-76
2022/10/23 07:57:25;;;;;;;6.68;1.75;;;15.00;99.90;;;14.29;100.00;99849.34;4120086;28;20022;-76
2022/10/23 07:59:26;;;;;;;8.80;2.75;;;15.00;99.90;;;14.33;100.00;99866.53;4118869;28;20023;-77
2022/10/23 08:01:35;;;;;;;8.88;1.77;;;15.00;99.90;;;14.36;100.00;99866.16;4102709;29;20106;-76
2022/10/23 08:03:36;;;;;;;14.50;2.90;;;15.00;99.90;;;14.32;100.00;99852.47;4119875;28;20518;-76
2022/10/23 08:05:37;;;;;;;5.00;1.98;;;15.00;99.90;;;14.31;100.00;99844.66;4118876;28;20046;-77
2022/10/23 08:07:39;;;;;;;10.20;2.35;;;15.00;99.90;;;14.29;100.00;99862.63;4119984;28;20110;-76
2022/10/23 08:09:40;;;;;;;10.63;2.50;;;15.00;99.90;;;14.29;100.00;99852.81;4118590;28;20035;-76
2022/10/23 08:11:41;;;;;;;11.60;1.77;;;15.00;99.90;;;14.26;100.00;99839.97;4102707;28;20038;-76
2022/10/23 08:13:43;;;;;;;12.40;3.00;;;15.00;99.90;;;14.25;100.00;99846.28;4102889;29;20114;-76
2022/10/23 08:15:44;;;;;;;12.30;2.38;;;14.90;99.90;;;14.16;100.00;99831.56;4119828;28;20033;-77
2022/10/23 08:17:44;;;;;;;9.77;2.00;;;14.90;99.90;;;14.17;100.00;99829.75;4118906;28;20031;-76
2022/10/23 08:19:47;;;;;;;8.60;2.00;;;14.80;99.90;;;14.12;100.00;99832.19;4119787;28;20035;-76
2022/10/23 08:21:48;;;;;;;8.95;1.70;;;14.80;99.90;;;14.11;100.00;99847.28;4118821;28;20434;-76
2022/10/23 08:23:52;;;;;;;7.20;1.80;;;14.80;99.90;;;14.04;100.00;99832.34;4128376;28;20023;-77
2022/10/23 08:26:04;;;;;;;9.55;1.90;;;14.80;99.90;;;14.03;100.00;99847.47;4118775;28;20035;-76
2022/10/23 08:28:06;;;;;;;11.25;2.90;;;14.70;99.90;;;14.06;100.00;99847.06;4118460;28;20050;-76
2022/10/23 08:30:08;;;;;;;11.88;2.35;;;14.70;99.90;;;14.04;100.00;99827.88;4119679;28;20035;-76
2022/10/23 08:32:08;;;;;;;9.50;2.30;;;14.70;99.90;;;14.05;100.00;99826.03;4118674;28;20028;-76
2022/10/23 08:34:09;;;;;;;13.35;3.40;;;14.70;99.90;;;14.07;100.00;99821.34;4102455;29;20038;-77
2022/10/23 08:36:26;;;;;;;12.20;3.38;;;14.70;99.90;;;14.07;100.00;99808.91;4119829;28;20023;-76